Lonetree, Wyoming
Current Conditions -  °F | °C
As of 5:15 AM on Sunday 25 Jan 2015 (Local Time) from KFBR Reporting Station
Clear Clear  
Wind Chill: 20°   Ceiling: Unl
Heat Index: 32°   Visibility: 10mi
Dew Point: 31°   Wind: 20mph
Humidity: 96%   Direction: 260°W
Pressure: 30.41"   Gusts: 25mph
Location:  41.0297°N, 110.145°W
Report Text: KFBR 251215Z AUTO 26017G22KT 10SM CLR 00/M01 A3041 RMK AO2 T10011006
Loading
Personal Weather Stations






























Interactive Weather Map New forecast layout! Learn more

10-Day Weather Forecast

Advertisements
Track Severe Weather on mobile